createdAt,value
2019-05-02T00:01:18.502Z,9.73
2019-05-02T00:03:45.311Z,9.71
2019-05-02T00:06:11.991Z,9.72
2019-05-02T00:08:39.252Z,9.72
2019-05-02T00:11:06.170Z,9.74
2019-05-02T00:13:32.742Z,9.73
2019-05-02T00:15:59.362Z,9.69
2019-05-02T00:18:31.964Z,9.62
2019-05-02T00:20:57.175Z,9.57
2019-05-02T00:23:28.095Z,9.44
2019-05-02T00:25:54.774Z,9.40
2019-05-02T00:28:21.740Z,9.34
2019-05-02T00:30:48.351Z,9.24
2019-05-02T00:33:14.858Z,9.20
2019-05-02T00:35:46.256Z,9.17
2019-05-02T00:38:10.127Z,9.13
2019-05-02T00:40:36.596Z,9.11
2019-05-02T00:43:03.757Z,9.09
2019-05-02T00:45:30.290Z,9.09
2019-05-02T00:48:03.021Z,9.04
2019-05-02T00:50:34.570Z,9.00
2019-05-02T00:53:01.032Z,8.98
2019-05-02T00:55:28.830Z,9.02
2019-05-02T00:57:56.969Z,9.04
2019-05-02T01:00:23.556Z,9.04
2019-05-02T01:02:54.837Z,9.10
2019-05-02T01:05:21.460Z,9.11
2019-05-02T01:07:47.996Z,9.10
2019-05-02T01:10:17.211Z,9.09
2019-05-02T01:12:44.473Z,9.10
2019-05-02T01:15:12.715Z,9.09
2019-05-02T01:17:39.654Z,9.10
2019-05-02T01:20:07.253Z,9.10
2019-05-02T01:22:34.059Z,9.12
2019-05-02T01:25:00.768Z,9.16
2019-05-02T01:27:36.108Z,9.22
2019-05-02T01:30:16.406Z,9.24
2019-05-02T01:32:50.058Z,9.26
2019-05-02T01:35:27.014Z,9.24
2019-05-02T01:38:16.270Z,9.23
2019-05-02T01:40:53.357Z,9.16
2019-05-02T01:43:28.882Z,9.13
2019-05-02T01:45:55.517Z,9.04
2019-05-02T01:48:22.259Z,8.99
2019-05-02T01:50:49.884Z,8.92
2019-05-02T01:53:16.537Z,8.86
2019-05-02T01:55:43.048Z,8.82
2019-05-02T01:58:09.716Z,8.78
2019-05-02T02:00:36.170Z,8.77
2019-05-02T02:03:04.281Z,8.74
2019-05-02T02:05:32.294Z,8.75
2019-05-02T02:08:00.132Z,8.79
2019-05-02T02:10:26.735Z,8.83
2019-05-02T02:13:03.375Z,8.84
2019-05-02T02:15:25.172Z,8.85
2019-05-02T02:17:51.522Z,8.86
2019-05-02T02:20:21.094Z,8.86
2019-05-02T02:22:58.211Z,8.82
2019-05-02T02:25:32.181Z,8.79
2019-05-02T02:28:01.009Z,8.77
2019-05-02T02:30:27.773Z,8.80
2019-05-02T02:33:00.684Z,8.77
2019-05-02T02:35:22.866Z,8.75
2019-05-02T02:37:53.097Z,8.78
2019-05-02T02:40:17.810Z,8.81
2019-05-02T02:42:44.439Z,8.84
2019-05-02T02:45:28.403Z,8.85
2019-05-02T02:48:00.005Z,8.87
2019-05-02T02:50:23.295Z,8.86
2019-05-02T02:52:49.791Z,8.85
2019-05-02T02:55:22.065Z,8.87
2019-05-02T02:57:44.809Z,8.89
2019-05-02T03:00:11.572Z,8.88
2019-05-02T03:02:47.813Z,8.90
2019-05-02T03:05:08.075Z,8.92
2019-05-02T03:07:34.838Z,8.91
2019-05-02T03:10:05.974Z,8.90
2019-05-02T03:12:49.231Z,8.92
2019-05-02T03:15:21.019Z,8.92
2019-05-02T03:17:46.117Z,8.94
2019-05-02T03:20:12.825Z,9.01
2019-05-02T03:22:41.825Z,9.02
2019-05-02T03:25:08.984Z,9.03
2019-05-02T03:27:37.483Z,9.01
2019-05-02T03:30:04.693Z,9.01
2019-05-02T03:32:35.160Z,9.01
2019-05-02T03:34:59.737Z,8.97
2019-05-02T03:37:26.493Z,8.96
2019-05-02T03:40:00.245Z,8.92
2019-05-02T03:42:22.698Z,8.89
2019-05-02T03:44:55.765Z,8.79
2019-05-02T03:47:18.528Z,8.73
2019-05-02T03:49:48.550Z,8.70
2019-05-02T03:52:15.255Z,8.69
2019-05-02T03:54:50.097Z,8.68
2019-05-02T03:57:10.877Z,8.67
2019-05-02T03:59:39.718Z,8.69
2019-05-02T04:02:05.910Z,8.68
2019-05-02T04:04:32.699Z,8.77
2019-05-02T04:07:01.075Z,8.81
2019-05-02T04:09:38.932Z,8.81
2019-05-02T04:12:03.250Z,8.80
2019-05-02T04:14:37.753Z,8.76
2019-05-02T04:17:01.415Z,8.74
2019-05-02T04:19:34.865Z,8.67
2019-05-02T04:22:07.893Z,8.65
2019-05-02T04:24:32.687Z,8.62
2019-05-02T04:26:59.490Z,8.60
2019-05-02T04:29:31.357Z,8.61
2019-05-02T04:31:54.340Z,8.63
2019-05-02T04:34:20.789Z,8.66
2019-05-02T04:37:00.754Z,8.67
2019-05-02T04:39:22.261Z,8.75
2019-05-02T04:41:48.864Z,8.80
2019-05-02T04:44:15.606Z,8.85
2019-05-02T04:46:42.092Z,8.89
2019-05-02T04:49:09.276Z,8.97
2019-05-02T04:51:38.112Z,9.01
2019-05-02T04:54:04.673Z,9.06
2019-05-02T04:56:31.125Z,9.08
2019-05-02T04:59:01.190Z,9.13
2019-05-02T05:01:33.139Z,9.15
2019-05-02T05:03:58.244Z,9.13
2019-05-02T05:06:22.942Z,9.09
2019-05-02T05:08:49.451Z,9.10
2019-05-02T05:11:20.863Z,9.14
2019-05-02T05:13:44.294Z,9.23
2019-05-02T05:16:15.656Z,9.34
2019-05-02T05:18:43.920Z,9.38
2019-05-02T05:21:10.654Z,9.39
2019-05-02T05:24:14.826Z,9.39
2019-05-02T05:26:44.955Z,9.49
2019-05-02T05:29:13.965Z,9.60
2019-05-02T05:31:39.970Z,9.65
2019-05-02T05:34:08.021Z,9.68
2019-05-02T05:36:34.960Z,9.71
2019-05-02T05:39:08.520Z,9.72
2019-05-02T05:41:33.001Z,9.82
2019-05-02T05:43:59.448Z,9.89
2019-05-02T05:46:27.987Z,10.01
2019-05-02T05:48:55.061Z,10.04
2019-05-02T05:51:21.559Z,10.07
2019-05-02T05:53:52.235Z,10.23
2019-05-02T05:56:18.014Z,10.27
2019-05-02T05:58:50.560Z,10.16
2019-05-02T06:01:13.257Z,10.12
2019-05-02T06:03:44.628Z,10.18
2019-05-02T06:06:10.257Z,10.21
2019-05-02T06:08:37.947Z,10.27
2019-05-02T06:11:04.554Z,10.23
2019-05-02T06:13:31.054Z,10.12
2019-05-02T06:16:02.660Z,10.18
2019-05-02T06:18:28.442Z,10.25
2019-05-02T06:20:56.835Z,10.33
2019-05-02T06:23:23.413Z,10.31
2019-05-02T06:25:49.924Z,10.43
2019-05-02T06:28:16.829Z,10.45
2019-05-02T06:30:43.617Z,10.42
2019-05-02T06:33:10.369Z,10.51
2019-05-02T06:35:37.948Z,10.81
2019-05-02T06:38:04.489Z,10.95
2019-05-02T06:40:30.952Z,11.18
2019-05-02T06:42:57.395Z,11.17
2019-05-02T06:45:25.082Z,11.08
2019-05-02T06:47:51.664Z,11.45
2019-05-02T06:50:18.212Z,11.83
2019-05-02T06:52:44.957Z,11.64
2019-05-02T06:55:15.786Z,12.00
2019-05-02T06:57:42.270Z,12.23
2019-05-02T07:00:10.276Z,12.62
2019-05-02T07:02:36.830Z,12.91
2019-05-02T07:05:04.742Z,13.23
2019-05-02T07:07:36.895Z,13.39
2019-05-02T07:10:00.019Z,13.69
2019-05-02T07:12:26.612Z,13.89
2019-05-02T07:14:56.128Z,13.65
2019-05-02T07:17:41.567Z,13.86
2019-05-02T07:20:08.533Z,13.91
2019-05-02T07:22:38.636Z,14.15
2019-05-02T07:25:06.873Z,14.53
2019-05-02T07:27:33.684Z,15.04
2019-05-02T07:30:01.951Z,15.04
2019-05-02T07:32:28.427Z,15.11
2019-05-02T07:34:55.148Z,15.15
2019-05-02T07:37:21.680Z,14.99
2019-05-02T07:39:48.171Z,14.82
2019-05-02T07:42:16.721Z,14.44
2019-05-02T07:44:43.339Z,14.51
2019-05-02T07:47:09.798Z,15.05
2019-05-02T07:49:36.679Z,15.38
2019-05-02T07:52:07.899Z,15.57
2019-05-02T07:54:34.703Z,15.54
2019-05-02T07:57:02.442Z,15.66
2019-05-02T07:59:29.211Z,15.77
2019-05-02T08:01:55.665Z,16.00
2019-05-02T08:04:22.430Z,16.53
2019-05-02T08:06:49.247Z,16.79
2019-05-02T08:09:15.783Z,16.08
2019-05-02T08:11:42.344Z,16.26
2019-05-02T08:14:09.429Z,16.43
2019-05-02T08:16:35.973Z,16.68
2019-05-02T08:19:05.462Z,17.50
2019-05-02T08:21:32.516Z,17.76
2019-05-02T08:24:02.264Z,17.79
2019-05-02T08:26:46.382Z,17.40
2019-05-02T08:29:13.211Z,17.97
2019-05-02T08:31:39.670Z,17.77
2019-05-02T08:34:14.731Z,17.91
2019-05-02T08:36:34.708Z,17.79
2019-05-02T08:39:01.167Z,17.70
2019-05-02T08:41:27.833Z,18.23
2019-05-02T08:43:54.666Z,18.41
2019-05-02T08:46:21.125Z,17.82
2019-05-02T08:48:50.547Z,17.28
2019-05-02T08:51:16.399Z,17.63
2019-05-02T08:53:42.877Z,18.07
2019-05-02T08:56:09.338Z,18.56
2019-05-02T08:58:35.832Z,18.71
2019-05-02T09:01:02.421Z,18.03
2019-05-02T09:03:28.967Z,17.57
2019-05-02T09:06:05.305Z,18.17
2019-05-02T09:08:24.123Z,17.50
2019-05-02T09:10:50.634Z,17.27
2019-05-02T09:13:23.513Z,17.59
2019-05-02T09:15:51.310Z,17.83
2019-05-02T09:18:16.031Z,18.31
2019-05-02T09:20:46.900Z,19.13
2019-05-02T09:23:16.672Z,18.46
2019-05-02T09:25:43.183Z,18.24
2019-05-02T09:28:09.668Z,18.27
2019-05-02T09:30:36.256Z,18.67
2019-05-02T09:33:06.571Z,18.25
2019-05-02T09:35:32.814Z,18.47
2019-05-02T09:38:01.633Z,18.17
2019-05-02T09:40:27.913Z,18.17
2019-05-02T09:42:58.536Z,18.52
2019-05-02T09:45:35.782Z,19.23
2019-05-02T09:48:04.591Z,19.64
2019-05-02T09:50:31.230Z,19.19
2019-05-02T09:52:53.967Z,18.78
2019-05-02T09:55:22.466Z,18.73
2019-05-02T09:57:49.203Z,19.25
2019-05-02T10:00:48.758Z,19.50
2019-05-02T10:03:15.953Z,19.64
2019-05-02T10:05:43.215Z,19.69
2019-05-02T10:08:13.477Z,19.83
2019-05-02T10:10:44.137Z,20.24
2019-05-02T10:13:07.631Z,19.45
2019-05-02T10:15:34.191Z,19.80
2019-05-02T10:18:08.768Z,19.04
2019-05-02T10:20:31.807Z,18.55
2019-05-02T10:22:58.462Z,18.02
2019-05-02T10:25:25.131Z,17.80
2019-05-02T10:27:52.319Z,18.86
2019-05-02T10:30:21.704Z,19.72
2019-05-02T10:32:52.916Z,19.81
2019-05-02T10:35:19.070Z,20.08
2019-05-02T10:37:45.550Z,19.03
2019-05-02T10:40:15.483Z,18.83
2019-05-02T10:42:41.926Z,18.12
2019-05-02T10:45:12.962Z,18.38
2019-05-02T10:47:38.320Z,17.82
2019-05-02T10:50:11.735Z,17.87
2019-05-02T10:52:38.358Z,18.56
2019-05-02T10:55:05.237Z,18.63
2019-05-02T10:57:32.616Z,18.43
2019-05-02T10:59:59.674Z,18.75
2019-05-02T11:02:53.302Z,18.24
2019-05-02T11:05:24.663Z,18.33
2019-05-02T11:07:49.221Z,18.11
2019-05-02T11:10:16.977Z,17.58
2019-05-02T11:12:49.994Z,17.51
2019-05-02T11:15:35.218Z,17.68
2019-05-02T11:18:02.298Z,17.88
2019-05-02T11:20:28.930Z,18.12
2019-05-02T11:22:55.704Z,18.32
2019-05-02T11:25:22.590Z,17.69
2019-05-02T11:27:49.215Z,17.25
2019-05-02T11:30:16.826Z,17.25
2019-05-02T11:32:44.773Z,17.31
2019-05-02T11:35:12.245Z,17.24
2019-05-02T11:37:39.245Z,17.24
2019-05-02T11:40:07.745Z,17.22
2019-05-02T11:42:35.228Z,17.23
2019-05-02T11:45:02.704Z,17.53
2019-05-02T11:47:29.388Z,17.28
2019-05-02T11:49:56.133Z,17.53
2019-05-02T11:52:22.815Z,17.78
2019-05-02T11:54:49.439Z,17.92
2019-05-02T11:57:16.143Z,17.88
2019-05-02T11:59:42.668Z,18.10
2019-05-02T12:02:31.904Z,18.46
2019-05-02T12:04:58.449Z,18.40
2019-05-02T12:07:25.033Z,18.65
2019-05-02T12:09:56.909Z,19.27
2019-05-02T12:12:20.135Z,19.24
2019-05-02T12:14:46.669Z,19.32
2019-05-02T12:17:13.451Z,19.24
2019-05-02T12:19:42.605Z,19.68
2019-05-02T12:22:12.944Z,20.20
2019-05-02T12:24:40.903Z,20.02
2019-05-02T12:27:06.109Z,20.07
2019-05-02T12:29:33.511Z,19.73
2019-05-02T12:32:00.123Z,19.35
2019-05-02T12:34:26.749Z,20.08
2019-05-02T12:36:53.686Z,19.75
2019-05-02T12:39:22.137Z,19.77
2019-05-02T12:41:49.236Z,19.31
2019-05-02T12:44:15.842Z,20.00
2019-05-02T12:46:42.487Z,20.33
2019-05-02T12:49:21.807Z,20.29
2019-05-02T12:51:37.325Z,20.11
2019-05-02T12:54:03.966Z,21.16
2019-05-02T12:56:32.391Z,21.36
2019-05-02T12:58:59.050Z,20.82
2019-05-02T13:01:25.626Z,20.49
2019-05-02T13:03:58.341Z,20.45
2019-05-02T13:06:25.037Z,20.46
2019-05-02T13:08:52.529Z,19.71
2019-05-02T13:11:42.231Z,20.10
2019-05-02T13:14:18.396Z,20.27
2019-05-02T13:16:36.617Z,20.31
2019-05-02T13:19:06.185Z,20.31
2019-05-02T13:21:41.790Z,20.67
2019-05-02T13:24:24.587Z,20.72
2019-05-02T13:26:59.533Z,20.91
2019-05-02T13:29:22.472Z,21.60
2019-05-02T13:32:16.973Z,21.90
2019-05-02T13:34:48.660Z,21.94
2019-05-02T13:37:16.368Z,20.85
2019-05-02T13:39:53.044Z,21.08
2019-05-02T13:42:21.853Z,20.53
2019-05-02T13:44:58.045Z,20.92
2019-05-02T13:47:25.001Z,20.48
2019-05-02T13:49:56.365Z,20.53
2019-05-02T13:52:19.951Z,20.49
2019-05-02T13:54:46.879Z,20.33
2019-05-02T13:57:13.342Z,20.50
2019-05-02T13:59:41.682Z,20.43
2019-05-02T14:02:31.649Z,20.37
2019-05-02T14:04:58.993Z,19.19
2019-05-02T14:07:25.472Z,19.69
2019-05-02T14:09:58.235Z,20.13
2019-05-02T14:12:52.876Z,20.04
2019-05-02T14:15:26.386Z,19.69
2019-05-02T14:17:53.467Z,19.78
2019-05-02T14:20:22.347Z,19.97
2019-05-02T14:22:49.323Z,19.51
2019-05-02T14:25:16.024Z,19.23
2019-05-02T14:27:46.759Z,19.53
2019-05-02T14:30:15.619Z,19.56
2019-05-02T14:32:42.576Z,19.55
2019-05-02T14:35:24.142Z,19.51
2019-05-02T14:38:07.564Z,19.32
2019-05-02T14:40:34.930Z,18.59
2019-05-02T14:43:03.374Z,18.87
2019-05-02T14:45:31.475Z,18.93
2019-05-02T14:48:15.549Z,18.56
2019-05-02T14:50:27.405Z,18.32
2019-05-02T14:52:55.832Z,18.42
2019-05-02T14:55:25.594Z,18.43
2019-05-02T14:57:52.631Z,18.53
2019-05-02T15:00:22.181Z,18.79
2019-05-02T15:02:49.535Z,19.04
2019-05-02T15:05:19.412Z,19.35
2019-05-02T15:07:45.034Z,19.42
2019-05-02T15:10:12.784Z,19.13
2019-05-02T15:12:39.588Z,18.83
2019-05-02T15:15:06.911Z,18.95
2019-05-02T15:17:37.739Z,18.72
2019-05-02T15:20:02.827Z,18.71
2019-05-02T15:22:33.161Z,18.79
2019-05-02T15:24:58.175Z,19.02
2019-05-02T15:27:24.757Z,19.07
2019-05-02T15:29:53.875Z,19.05
2019-05-02T15:32:29.137Z,18.95
2019-05-02T15:35:17.615Z,18.87
2019-05-02T15:37:42.715Z,18.91
2019-05-02T15:42:49.649Z,18.25
2019-05-02T15:45:20.388Z,18.37
2019-05-02T15:47:46.929Z,18.57
2019-05-02T15:50:21.376Z,18.33
2019-05-02T15:52:46.716Z,18.35
2019-05-02T15:55:13.301Z,18.26
2019-05-02T15:57:43.676Z,18.10
2019-05-02T16:00:17.138Z,18.01
2019-05-02T16:02:39.714Z,18.00
2019-05-02T16:05:08.877Z,17.80
2019-05-02T16:07:38.014Z,17.85
2019-05-02T16:10:04.573Z,17.89
2019-05-02T16:12:32.069Z,17.86
2019-05-02T16:14:59.529Z,17.75
2019-05-02T16:17:28.208Z,17.54
2019-05-02T16:19:58.807Z,17.55
2019-05-02T16:22:38.287Z,17.61
2019-05-02T16:25:04.093Z,17.45
2019-05-02T16:27:46.603Z,17.27
2019-05-02T16:30:15.444Z,17.27
2019-05-02T16:32:46.412Z,17.29
2019-05-02T16:35:17.352Z,17.32
2019-05-02T16:37:46.788Z,17.48
2019-05-02T16:40:12.016Z,17.55
2019-05-02T16:42:38.699Z,17.49
2019-05-02T16:45:07.377Z,17.37
2019-05-02T16:47:34.155Z,17.42
2019-05-02T16:50:02.496Z,17.38
2019-05-02T16:52:29.095Z,17.31
2019-05-02T16:54:55.860Z,17.44
2019-05-02T16:57:23.806Z,17.52
2019-05-02T16:59:55.860Z,17.59
2019-05-02T17:02:18.945Z,17.44
2019-05-02T17:04:54.242Z,17.41
2019-05-02T17:07:27.869Z,17.34
2019-05-02T17:10:02.904Z,17.31
2019-05-02T17:12:29.605Z,17.26
2019-05-02T17:15:14.834Z,17.10
2019-05-02T17:17:42.335Z,16.82
2019-05-02T17:20:12.934Z,16.74
2019-05-02T17:22:37.776Z,16.67
2019-05-02T17:25:05.975Z,16.68
2019-05-02T17:27:33.199Z,16.72
2019-05-02T17:30:01.433Z,16.69
2019-05-02T17:32:28.961Z,16.71
2019-05-02T17:34:55.428Z,16.68
2019-05-02T17:37:22.297Z,16.66
2019-05-02T17:39:48.801Z,16.59
2019-05-02T17:42:16.970Z,16.58
2019-05-02T17:44:44.012Z,16.58
2019-05-02T17:47:10.895Z,16.57
2019-05-02T17:49:37.465Z,16.47
2019-05-02T17:52:26.808Z,16.49
2019-05-02T17:54:52.867Z,16.40
2019-05-02T17:57:21.447Z,16.25
2019-05-02T17:59:47.822Z,16.22
2019-05-02T18:02:16.014Z,16.17
2019-05-02T18:04:46.561Z,16.15
2019-05-02T18:07:11.745Z,16.13
2019-05-02T18:09:38.295Z,16.07
2019-05-02T18:12:07.180Z,15.97
2019-05-02T18:14:33.506Z,15.77
2019-05-02T18:17:01.847Z,15.66
2019-05-02T18:19:32.783Z,15.55
2019-05-02T18:22:03.512Z,15.53
2019-05-02T18:24:28.460Z,15.46
2019-05-02T18:26:55.325Z,15.36
2019-05-02T18:29:22.166Z,15.34
2019-05-02T18:31:49.187Z,15.30
2019-05-02T18:34:21.009Z,15.35
2019-05-02T18:36:44.273Z,15.38
2019-05-02T18:39:13.009Z,15.32
2019-05-02T18:41:42.706Z,15.34
2019-05-02T18:44:11.820Z,15.35
2019-05-02T18:46:41.683Z,15.38
2019-05-02T18:49:08.217Z,15.38
2019-05-02T18:51:34.965Z,15.31
2019-05-02T18:54:04.352Z,15.29
2019-05-02T18:56:35.592Z,15.19
2019-05-02T18:59:02.512Z,15.18
2019-05-02T19:01:28.702Z,15.14
2019-05-02T19:03:56.334Z,15.12
2019-05-02T19:06:23.484Z,15.12
2019-05-02T19:08:52.589Z,15.10
2019-05-02T19:11:19.505Z,15.07
2019-05-02T19:13:56.781Z,14.95
2019-05-02T19:16:24.909Z,14.80
2019-05-02T19:18:55.837Z,14.59
2019-05-02T19:21:26.357Z,14.41
2019-05-02T19:23:52.972Z,14.21
2019-05-02T19:26:22.123Z,14.09
2019-05-02T19:28:57.006Z,13.93
2019-05-02T19:31:27.309Z,13.74
2019-05-02T19:33:55.513Z,13.61
2019-05-02T19:36:27.425Z,13.47
2019-05-02T19:38:56.895Z,13.27
2019-05-02T19:41:24.445Z,13.06
2019-05-02T19:43:51.479Z,12.91
2019-05-02T19:46:24.494Z,12.75
2019-05-02T19:48:48.352Z,12.62
2019-05-02T19:51:18.483Z,12.55
2019-05-02T19:53:43.833Z,12.59
2019-05-02T19:56:12.820Z,12.56
2019-05-02T19:58:42.797Z,12.56
2019-05-02T20:01:08.162Z,12.60
2019-05-02T20:03:35.736Z,12.59
2019-05-02T20:06:06.204Z,12.55
2019-05-02T20:08:32.935Z,12.53
2019-05-02T20:10:59.560Z,12.53
2019-05-02T20:13:30.609Z,12.51
2019-05-02T20:16:06.016Z,12.44
2019-05-02T20:18:34.851Z,12.45
2019-05-02T20:21:28.530Z,12.51
2019-05-02T20:23:55.065Z,12.53
2019-05-02T20:26:22.176Z,12.52
2019-05-02T20:28:48.777Z,12.54
2019-05-02T20:31:15.505Z,12.46
2019-05-02T20:33:43.013Z,12.37
2019-05-02T20:36:12.181Z,12.30
2019-05-02T20:38:38.515Z,12.27
2019-05-02T20:41:05.309Z,12.33
2019-05-02T20:43:32.276Z,12.38
2019-05-02T20:45:59.106Z,12.43
2019-05-02T20:48:25.742Z,12.44
2019-05-02T20:50:52.231Z,12.46
2019-05-02T20:53:30.708Z,12.48
2019-05-02T20:55:47.093Z,12.41
2019-05-02T20:58:13.590Z,12.37
2019-05-02T21:00:40.194Z,12.28
2019-05-02T21:03:06.680Z,12.18
2019-05-02T21:05:42.765Z,12.06
2019-05-02T21:08:47.137Z,11.97
2019-05-02T21:11:13.694Z,11.95
2019-05-02T21:13:41.853Z,11.83
2019-05-02T21:16:08.575Z,11.77
2019-05-02T21:18:35.048Z,11.76
2019-05-02T21:21:01.503Z,11.65
2019-05-02T21:23:40.644Z,11.68
2019-05-02T21:25:56.569Z,11.56
2019-05-02T21:28:23.023Z,11.63
2019-05-02T21:30:49.584Z,11.60
2019-05-02T21:33:32.155Z,11.59
2019-05-02T21:35:58.602Z,11.59
2019-05-02T21:38:25.403Z,11.54
2019-05-02T21:40:52.678Z,11.61
2019-05-02T21:43:19.130Z,11.62
2019-05-02T21:45:45.885Z,11.66
2019-05-02T21:48:12.361Z,11.76
2019-05-02T21:50:45.301Z,11.85
2019-05-02T21:53:33.681Z,11.96
2019-05-02T21:56:25.508Z,11.94
2019-05-02T21:59:04.570Z,11.79
2019-05-02T22:01:35.199Z,11.74
2019-05-02T22:04:06.904Z,11.70
2019-05-02T22:06:33.382Z,11.66
2019-05-02T22:08:59.914Z,11.66
2019-05-02T22:11:28.566Z,11.75
2019-05-02T22:13:55.148Z,11.70
2019-05-02T22:16:21.955Z,11.69
2019-05-02T22:18:48.592Z,11.67
2019-05-02T22:21:15.292Z,11.73
2019-05-02T22:23:42.593Z,11.66
2019-05-02T22:26:10.163Z,11.64
2019-05-02T22:28:36.693Z,11.65
2019-05-02T22:31:03.469Z,11.65
2019-05-02T22:33:30.063Z,11.53
2019-05-02T22:35:56.565Z,11.49
2019-05-02T22:38:39.675Z,11.40
2019-05-02T22:41:06.167Z,11.39
2019-05-02T22:43:32.817Z,11.39
2019-05-02T22:45:59.316Z,11.40
2019-05-02T22:48:25.839Z,11.40
2019-05-02T22:50:52.460Z,11.45
2019-05-02T22:53:21.482Z,11.50
2019-05-02T22:55:47.931Z,11.53
2019-05-02T22:58:14.459Z,11.53
2019-05-02T23:00:41.657Z,11.47
2019-05-02T23:03:09.464Z,11.47
2019-05-02T23:05:36.483Z,11.41
2019-05-02T23:08:03.451Z,11.45
2019-05-02T23:10:30.016Z,11.37
2019-05-02T23:12:56.801Z,11.38
2019-05-02T23:15:23.354Z,11.30
2019-05-02T23:17:52.178Z,11.29
2019-05-02T23:20:18.502Z,11.24
2019-05-02T23:22:45.019Z,11.25
2019-05-02T23:25:42.581Z,11.26
2019-05-02T23:28:13.856Z,11.18
2019-05-02T23:30:42.427Z,11.11
2019-05-02T23:33:09.588Z,11.11
2019-05-02T23:35:36.124Z,11.05
2019-05-02T23:38:02.719Z,11.10
2019-05-02T23:40:30.303Z,11.11
2019-05-02T23:42:56.813Z,11.11
2019-05-02T23:45:24.401Z,11.05
2019-05-02T23:47:52.695Z,11.04
2019-05-02T23:50:19.478Z,11.03
2019-05-02T23:52:46.055Z,11.02
2019-05-02T23:55:12.967Z,11.06
2019-05-02T23:57:41.876Z,11.00
